NCAR-RAP Real-Time Weather Data

Output produced by METARs form (10 April 2020  05:15 UTC)
found at http://weather.rap.ucar.edu/surface/
 
KATL 100452Z 30012KT 10SM BKN200 OVC250 17/03 A2983 RMK AO2 SLP095 T01720028 402560167